sensor_id;sensor_type;location;lat;lon;timestamp;temperature;humidity
21171;DHT22;10743;52.160;20.910;2024-02-26T00:00:13;22.30;35.60
21171;DHT22;10743;52.160;20.910;2024-02-26T00:02:41;22.30;35.90
21171;DHT22;10743;52.160;20.910;2024-02-26T00:05:08;22.30;36.00
21171;DHT22;10743;52.160;20.910;2024-02-26T00:07:35;22.30;36.10
21171;DHT22;10743;52.160;20.910;2024-02-26T00:10:02;22.20;36.10
21171;DHT22;10743;52.160;20.910;2024-02-26T00:12:30;22.20;36.20
21171;DHT22;10743;52.160;20.910;2024-02-26T00:14:57;22.20;36.40
21171;DHT22;10743;52.160;20.910;2024-02-26T00:17:25;22.20;36.50
21171;DHT22;10743;52.160;20.910;2024-02-26T00:19:52;22.20;36.20
21171;DHT22;10743;52.160;20.910;2024-02-26T00:22:20;22.20;35.90
21171;DHT22;10743;52.160;20.910;2024-02-26T00:24:48;22.10;35.60
21171;DHT22;10743;52.160;20.910;2024-02-26T00:27:15;22.10;35.30
21171;DHT22;10743;52.160;20.910;2024-02-26T00:29:43;22.10;35.30
21171;DHT22;10743;52.160;20.910;2024-02-26T00:32:10;22.00;35.60
21171;DHT22;10743;52.160;20.910;2024-02-26T00:34:37;22.00;35.90
21171;DHT22;10743;52.160;20.910;2024-02-26T00:37:04;22.00;36.40
21171;DHT22;10743;52.160;20.910;2024-02-26T00:39:31;21.90;36.40
21171;DHT22;10743;52.160;20.910;2024-02-26T00:41:58;21.90;36.40
21171;DHT22;10743;52.160;20.910;2024-02-26T00:44:25;21.90;36.40
21171;DHT22;10743;52.160;20.910;2024-02-26T00:46:52;21.90;36.60
21171;DHT22;10743;52.160;20.910;2024-02-26T00:49:19;21.80;36.70
21171;DHT22;10743;52.160;20.910;2024-02-26T00:51:46;21.90;36.90
21171;DHT22;10743;52.160;20.910;2024-02-26T00:54:13;21.90;37.10
21171;DHT22;10743;52.160;20.910;2024-02-26T00:56:40;21.90;37.00
21171;DHT22;10743;52.160;20.910;2024-02-26T00:59:07;21.90;37.00
21171;DHT22;10743;52.160;20.910;2024-02-26T01:01:34;21.90;37.00
21171;DHT22;10743;52.160;20.910;2024-02-26T01:04:01;21.90;36.80
21171;DHT22;10743;52.160;20.910;2024-02-26T01:06:30;21.90;36.80
21171;DHT22;10743;52.160;20.910;2024-02-26T01:08:57;21.90;36.70
21171;DHT22;10743;52.160;20.910;2024-02-26T01:11:24;21.90;36.70
21171;DHT22;10743;52.160;20.910;2024-02-26T01:13:51;21.90;36.70
21171;DHT22;10743;52.160;20.910;2024-02-26T01:16:23;21.90;36.70
21171;DHT22;10743;52.160;20.910;2024-02-26T01:18:50;21.90;36.70
21171;DHT22;10743;52.160;20.910;2024-02-26T01:21:18;21.90;36.50
21171;DHT22;10743;52.160;20.910;2024-02-26T01:23:45;21.80;36.40
21171;DHT22;10743;52.160;20.910;2024-02-26T01:26:12;21.80;36.40
21171;DHT22;10743;52.160;20.910;2024-02-26T01:28:39;21.80;36.40
21171;DHT22;10743;52.160;20.910;2024-02-26T01:31:06;21.80;36.40
21171;DHT22;10743;52.160;20.910;2024-02-26T01:33:35;21.80;36.30
21171;DHT22;10743;52.160;20.910;2024-02-26T01:36:03;21.70;36.10
21171;DHT22;10743;52.160;20.910;2024-02-26T01:38:30;21.70;36.20
21171;DHT22;10743;52.160;20.910;2024-02-26T01:40:57;21.60;36.20
21171;DHT22;10743;52.160;20.910;2024-02-26T01:43:24;21.60;36.30
21171;DHT22;10743;52.160;20.910;2024-02-26T01:45:51;21.60;36.40
21171;DHT22;10743;52.160;20.910;2024-02-26T01:48:18;21.60;36.50
21171;DHT22;10743;52.160;20.910;2024-02-26T01:50:45;21.60;36.50
21171;DHT22;10743;52.160;20.910;2024-02-26T01:53:13;21.60;36.50
21171;DHT22;10743;52.160;20.910;2024-02-26T01:55:40;21.60;36.60
21171;DHT22;10743;52.160;20.910;2024-02-26T01:58:07;21.50;36.70
21171;DHT22;10743;52.160;20.910;2024-02-26T02:00:35;21.60;36.80
21171;DHT22;10743;52.160;20.910;2024-02-26T02:03:03;21.60;36.70
21171;DHT22;10743;52.160;20.910;2024-02-26T02:05:31;21.50;36.70
21171;DHT22;10743;52.160;20.910;2024-02-26T02:07:58;21.50;36.70
21171;DHT22;10743;52.160;20.910;2024-02-26T02:10:26;21.50;36.60
21171;DHT22;10743;52.160;20.910;2024-02-26T02:12:54;21.50;36.60
21171;DHT22;10743;52.160;20.910;2024-02-26T02:15:21;21.50;36.40
21171;DHT22;10743;52.160;20.910;2024-02-26T02:17:49;21.50;36.40
21171;DHT22;10743;52.160;20.910;2024-02-26T02:20:17;21.40;36.10
21171;DHT22;10743;52.160;20.910;2024-02-26T02:22:45;21.40;36.10
21171;DHT22;10743;52.160;20.910;2024-02-26T02:25:13;21.40;36.10
21171;DHT22;10743;52.160;20.910;2024-02-26T02:27:41;21.30;36.10
21171;DHT22;10743;52.160;20.910;2024-02-26T02:30:10;21.30;36.30
21171;DHT22;10743;52.160;20.910;2024-02-26T02:32:40;21.30;36.40
21171;DHT22;10743;52.160;20.910;2024-02-26T02:35:10;21.30;36.30
21171;DHT22;10743;52.160;20.910;2024-02-26T02:37:37;21.20;36.00
21171;DHT22;10743;52.160;20.910;2024-02-26T02:40:05;21.20;36.00
21171;DHT22;10743;52.160;20.910;2024-02-26T02:42:32;21.20;36.00
21171;DHT22;10743;52.160;20.910;2024-02-26T02:44:59;21.10;36.00
21171;DHT22;10743;52.160;20.910;2024-02-26T02:47:26;21.10;36.20
21171;DHT22;10743;52.160;20.910;2024-02-26T02:49:53;21.10;36.40
21171;DHT22;10743;52.160;20.910;2024-02-26T02:52:20;21.10;36.30
21171;DHT22;10743;52.160;20.910;2024-02-26T02:54:47;21.00;36.10
21171;DHT22;10743;52.160;20.910;2024-02-26T02:57:14;21.00;35.90
21171;DHT22;10743;52.160;20.910;2024-02-26T02:59:41;21.00;35.90
21171;DHT22;10743;52.160;20.910;2024-02-26T03:02:08;20.90;36.10
21171;DHT22;10743;52.160;20.910;2024-02-26T03:04:35;20.90;36.10
21171;DHT22;10743;52.160;20.910;2024-02-26T03:07:02;20.90;36.20
21171;DHT22;10743;52.160;20.910;2024-02-26T03:09:30;20.90;36.40
21171;DHT22;10743;52.160;20.910;2024-02-26T03:11:57;20.90;36.50
21171;DHT22;10743;52.160;20.910;2024-02-26T03:14:24;20.80;36.60
21171;DHT22;10743;52.160;20.910;2024-02-26T03:16:55;20.90;36.80
21171;DHT22;10743;52.160;20.910;2024-02-26T03:19:22;20.90;36.70
21171;DHT22;10743;52.160;20.910;2024-02-26T03:21:51;20.90;36.70
21171;DHT22;10743;52.160;20.910;2024-02-26T03:24:18;21.00;36.70
21171;DHT22;10743;52.160;20.910;2024-02-26T03:26:45;20.90;36.60
21171;DHT22;10743;52.160;20.910;2024-02-26T03:29:12;20.80;36.50
21171;DHT22;10743;52.160;20.910;2024-02-26T03:31:39;20.70;36.50
21171;DHT22;10743;52.160;20.910;2024-02-26T03:34:06;20.80;36.60
21171;DHT22;10743;52.160;20.910;2024-02-26T03:36:33;20.80;36.70
21171;DHT22;10743;52.160;20.910;2024-02-26T03:39:00;20.80;37.00
21171;DHT22;10743;52.160;20.910;2024-02-26T03:41:31;20.80;36.90
21171;DHT22;10743;52.160;20.910;2024-02-26T03:43:58;20.80;37.00
21171;DHT22;10743;52.160;20.910;2024-02-26T03:46:25;20.80;36.70
21171;DHT22;10743;52.160;20.910;2024-02-26T03:48:52;20.80;36.60
21171;DHT22;10743;52.160;20.910;2024-02-26T03:51:20;20.80;36.50
21171;DHT22;10743;52.160;20.910;2024-02-26T03:53:47;20.80;36.60
21171;DHT22;10743;52.160;20.910;2024-02-26T03:56:14;20.80;36.80
21171;DHT22;10743;52.160;20.910;2024-02-26T03:58:41;20.80;36.90
21171;DHT22;10743;52.160;20.910;2024-02-26T04:01:09;20.80;37.20
21171;DHT22;10743;52.160;20.910;2024-02-26T04:03:36;20.80;37.30
21171;DHT22;10743;52.160;20.910;2024-02-26T04:06:03;20.80;37.50
21171;DHT22;10743;52.160;20.910;2024-02-26T04:08:31;20.80;37.50
21171;DHT22;10743;52.160;20.910;2024-02-26T04:10:58;20.80;37.50
21171;DHT22;10743;52.160;20.910;2024-02-26T04:13:25;20.80;37.60
21171;DHT22;10743;52.160;20.910;2024-02-26T04:15:52;20.80;37.50
21171;DHT22;10743;52.160;20.910;2024-02-26T04:18:19;20.80;37.50
21171;DHT22;10743;52.160;20.910;2024-02-26T04:20:47;20.80;37.50
21171;DHT22;10743;52.160;20.910;2024-02-26T04:23:14;20.90;37.70
21171;DHT22;10743;52.160;20.910;2024-02-26T04:25:41;20.90;37.70
21171;DHT22;10743;52.160;20.910;2024-02-26T04:28:08;20.90;37.70
21171;DHT22;10743;52.160;20.910;2024-02-26T04:30:35;20.90;37.70
21171;DHT22;10743;52.160;20.910;2024-02-26T04:33:02;20.90;37.70
21171;DHT22;10743;52.160;20.910;2024-02-26T04:35:29;20.90;37.60
21171;DHT22;10743;52.160;20.910;2024-02-26T04:37:56;20.90;37.50
21171;DHT22;10743;52.160;20.910;2024-02-26T04:40:23;21.00;37.50
21171;DHT22;10743;52.160;20.910;2024-02-26T04:42:50;20.90;37.40
21171;DHT22;10743;52.160;20.910;2024-02-26T04:45:17;20.90;37.20
21171;DHT22;10743;52.160;20.910;2024-02-26T04:47:45;20.90;37.10
21171;DHT22;10743;52.160;20.910;2024-02-26T04:50:13;20.90;37.00
21171;DHT22;10743;52.160;20.910;2024-02-26T04:52:41;20.90;36.90
21171;DHT22;10743;52.160;20.910;2024-02-26T04:55:08;20.90;36.90
21171;DHT22;10743;52.160;20.910;2024-02-26T04:57:35;20.90;36.90
21171;DHT22;10743;52.160;20.910;2024-02-26T05:00:03;20.90;36.80
21171;DHT22;10743;52.160;20.910;2024-02-26T05:02:32;20.90;36.90
21171;DHT22;10743;52.160;20.910;2024-02-26T05:05:00;20.90;36.90
21171;DHT22;10743;52.160;20.910;2024-02-26T05:07:27;20.80;36.90
21171;DHT22;10743;52.160;20.910;2024-02-26T05:09:54;20.80;37.00
21171;DHT22;10743;52.160;20.910;2024-02-26T05:12:21;20.80;37.00
21171;DHT22;10743;52.160;20.910;2024-02-26T05:14:48;20.80;37.20
21171;DHT22;10743;52.160;20.910;2024-02-26T05:17:15;20.80;37.20
21171;DHT22;10743;52.160;20.910;2024-02-26T05:19:42;20.90;37.40
21171;DHT22;10743;52.160;20.910;2024-02-26T05:22:09;20.80;37.40
21171;DHT22;10743;52.160;20.910;2024-02-26T05:24:38;20.80;37.40
21171;DHT22;10743;52.160;20.910;2024-02-26T05:27:05;20.80;37.50
21171;DHT22;10743;52.160;20.910;2024-02-26T05:29:32;20.80;37.50
21171;DHT22;10743;52.160;20.910;2024-02-26T05:31:59;20.80;38.20
21171;DHT22;10743;52.160;20.910;2024-02-26T05:34:26;20.80;37.40
21171;DHT22;10743;52.160;20.910;2024-02-26T05:36:53;20.90;37.50
21171;DHT22;10743;52.160;20.910;2024-02-26T05:39:20;20.80;37.50
21171;DHT22;10743;52.160;20.910;2024-02-26T05:41:47;20.90;37.60
21171;DHT22;10743;52.160;20.910;2024-02-26T05:44:16;20.80;37.70
21171;DHT22;10743;52.160;20.910;2024-02-26T05:46:43;20.90;37.90
21171;DHT22;10743;52.160;20.910;2024-02-26T05:49:10;20.90;37.80
21171;DHT22;10743;52.160;20.910;2024-02-26T05:51:37;20.90;37.90
21171;DHT22;10743;52.160;20.910;2024-02-26T05:54:04;20.90;38.00
21171;DHT22;10743;52.160;20.910;2024-02-26T05:56:31;21.00;38.10
21171;DHT22;10743;52.160;20.910;2024-02-26T05:58:58;21.00;38.10
21171;DHT22;10743;52.160;20.910;2024-02-26T06:01:25;21.00;38.10
21171;DHT22;10743;52.160;20.910;2024-02-26T06:03:53;21.00;38.10
21171;DHT22;10743;52.160;20.910;2024-02-26T06:06:20;21.10;38.20
21171;DHT22;10743;52.160;20.910;2024-02-26T06:08:49;21.10;38.20
21171;DHT22;10743;52.160;20.910;2024-02-26T06:11:17;21.10;38.30
21171;DHT22;10743;52.160;20.910;2024-02-26T06:13:44;21.10;38.40
21171;DHT22;10743;52.160;20.910;2024-02-26T06:16:11;21.20;38.50
21171;DHT22;10743;52.160;20.910;2024-02-26T06:18:38;21.10;38.60
21171;DHT22;10743;52.160;20.910;2024-02-26T06:21:09;21.20;38.80
21171;DHT22;10743;52.160;20.910;2024-02-26T06:23:38;21.20;38.80
21171;DHT22;10743;52.160;20.910;2024-02-26T06:26:06;21.20;38.90
21171;DHT22;10743;52.160;20.910;2024-02-26T06:28:33;21.20;38.90
21171;DHT22;10743;52.160;20.910;2024-02-26T06:31:02;21.30;39.10
21171;DHT22;10743;52.160;20.910;2024-02-26T06:33:29;21.30;39.20
21171;DHT22;10743;52.160;20.910;2024-02-26T06:35:56;21.30;39.10
21171;DHT22;10743;52.160;20.910;2024-02-26T06:38:23;21.40;39.20
21171;DHT22;10743;52.160;20.910;2024-02-26T06:40:50;21.30;39.20
21171;DHT22;10743;52.160;20.910;2024-02-26T06:43:17;21.40;39.30
21171;DHT22;10743;52.160;20.910;2024-02-26T06:45:44;21.50;39.40
21171;DHT22;10743;52.160;20.910;2024-02-26T06:48:11;21.50;39.50
21171;DHT22;10743;52.160;20.910;2024-02-26T06:50:38;21.60;40.30
21171;DHT22;10743;52.160;20.910;2024-02-26T06:53:05;21.60;39.60
21171;DHT22;10743;52.160;20.910;2024-02-26T06:55:34;21.60;39.40
21171;DHT22;10743;52.160;20.910;2024-02-26T06:58:01;21.70;39.60
21171;DHT22;10743;52.160;20.910;2024-02-26T07:00:28;21.70;39.80
21171;DHT22;10743;52.160;20.910;2024-02-26T07:02:55;21.90;40.00
21171;DHT22;10743;52.160;20.910;2024-02-26T07:05:22;21.90;40.00
21171;DHT22;10743;52.160;20.910;2024-02-26T07:07:49;22.00;40.70
21171;DHT22;10743;52.160;20.910;2024-02-26T07:10:16;22.10;40.30
21171;DHT22;10743;52.160;20.910;2024-02-26T07:12:43;22.10;40.60
21171;DHT22;10743;52.160;20.910;2024-02-26T07:15:11;22.20;40.40
21171;DHT22;10743;52.160;20.910;2024-02-26T07:17:38;22.40;40.60
21171;DHT22;10743;52.160;20.910;2024-02-26T07:20:09;22.60;40.50
21171;DHT22;10743;52.160;20.910;2024-02-26T07:22:38;22.60;40.50
21171;DHT22;10743;52.160;20.910;2024-02-26T07:25:05;22.70;40.40
21171;DHT22;10743;52.160;20.910;2024-02-26T07:27:34;22.80;40.40
21171;DHT22;10743;52.160;20.910;2024-02-26T07:30:02;22.80;40.30
21171;DHT22;10743;52.160;20.910;2024-02-26T07:32:29;22.90;40.20
21171;DHT22;10743;52.160;20.910;2024-02-26T07:34:56;23.10;40.30
21171;DHT22;10743;52.160;20.910;2024-02-26T07:37:23;23.10;40.20
21171;DHT22;10743;52.160;20.910;2024-02-26T07:39:50;23.10;40.10
21171;DHT22;10743;52.160;20.910;2024-02-26T07:42:17;23.20;40.20
21171;DHT22;10743;52.160;20.910;2024-02-26T07:44:44;23.20;40.20
21171;DHT22;10743;52.160;20.910;2024-02-26T07:47:12;23.30;40.40
21171;DHT22;10743;52.160;20.910;2024-02-26T07:49:39;23.40;40.20
21171;DHT22;10743;52.160;20.910;2024-02-26T07:52:07;23.40;40.20
21171;DHT22;10743;52.160;20.910;2024-02-26T07:54:34;23.50;40.20
21171;DHT22;10743;52.160;20.910;2024-02-26T07:57:01;23.70;40.00
21171;DHT22;10743;52.160;20.910;2024-02-26T07:59:32;23.80;40.00
21171;DHT22;10743;52.160;20.910;2024-02-26T08:01:59;23.90;40.00
21171;DHT22;10743;52.160;20.910;2024-02-26T08:04:27;24.00;39.80
21171;DHT22;10743;52.160;20.910;2024-02-26T08:06:54;24.10;39.80
21171;DHT22;10743;52.160;20.910;2024-02-26T08:09:21;24.10;39.70
21171;DHT22;10743;52.160;20.910;2024-02-26T08:11:49;24.20;39.70
21171;DHT22;10743;52.160;20.910;2024-02-26T08:14:16;24.30;39.70
21171;DHT22;10743;52.160;20.910;2024-02-26T08:16:43;24.40;39.50
21171;DHT22;10743;52.160;20.910;2024-02-26T08:19:10;24.50;39.50
21171;DHT22;10743;52.160;20.910;2024-02-26T08:21:38;24.50;39.60
21171;DHT22;10743;52.160;20.910;2024-02-26T08:24:05;24.60;39.70
21171;DHT22;10743;52.160;20.910;2024-02-26T08:26:32;24.70;40.00
21171;DHT22;10743;52.160;20.910;2024-02-26T08:28:59;24.80;39.80
21171;DHT22;10743;52.160;20.910;2024-02-26T08:31:27;24.90;39.70
21171;DHT22;10743;52.160;20.910;2024-02-26T08:33:54;25.00;39.70
21171;DHT22;10743;52.160;20.910;2024-02-26T08:36:22;25.10;39.60
21171;DHT22;10743;52.160;20.910;2024-02-26T08:38:49;25.20;39.60
21171;DHT22;10743;52.160;20.910;2024-02-26T08:41:16;25.40;39.20
21171;DHT22;10743;52.160;20.910;2024-02-26T08:43:43;25.60;39.10
21171;DHT22;10743;52.160;20.910;2024-02-26T08:46:10;25.70;39.00
21171;DHT22;10743;52.160;20.910;2024-02-26T08:48:39;25.70;39.10
21171;DHT22;10743;52.160;20.910;2024-02-26T08:51:08;25.80;39.00
21171;DHT22;10743;52.160;20.910;2024-02-26T08:53:36;25.80;39.00
21171;DHT22;10743;52.160;20.910;2024-02-26T08:56:10;25.90;38.90
21171;DHT22;10743;52.160;20.910;2024-02-26T08:58:45;26.00;38.90
21171;DHT22;10743;52.160;20.910;2024-02-26T09:01:15;26.10;39.00
21171;DHT22;10743;52.160;20.910;2024-02-26T09:03:43;26.20;38.90
21171;DHT22;10743;52.160;20.910;2024-02-26T09:06:11;26.20;39.00
21171;DHT22;10743;52.160;20.910;2024-02-26T09:08:40;26.40;38.80
21171;DHT22;10743;52.160;20.910;2024-02-26T09:11:07;26.40;38.80
21171;DHT22;10743;52.160;20.910;2024-02-26T09:13:37;26.50;38.90
21171;DHT22;10743;52.160;20.910;2024-02-26T09:16:05;26.60;38.80
21171;DHT22;10743;52.160;20.910;2024-02-26T09:18:32;26.60;38.50
21171;DHT22;10743;52.160;20.910;2024-02-26T09:21:00;26.70;38.40
21171;DHT22;10743;52.160;20.910;2024-02-26T09:23:31;26.70;38.50
21171;DHT22;10743;52.160;20.910;2024-02-26T09:25:58;26.80;38.50
21171;DHT22;10743;52.160;20.910;2024-02-26T09:28:25;26.90;38.20
21171;DHT22;10743;52.160;20.910;2024-02-26T09:30:52;27.00;38.20
21171;DHT22;10743;52.160;20.910;2024-02-26T09:33:19;27.00;38.20
21171;DHT22;10743;52.160;20.910;2024-02-26T09:35:46;27.10;38.10
21171;DHT22;10743;52.160;20.910;2024-02-26T09:38:13;27.20;38.20
21171;DHT22;10743;52.160;20.910;2024-02-26T09:40:40;27.20;38.30
21171;DHT22;10743;52.160;20.910;2024-02-26T09:43:09;27.20;37.90
21171;DHT22;10743;52.160;20.910;2024-02-26T09:45:41;27.30;37.80
21171;DHT22;10743;52.160;20.910;2024-02-26T09:48:10;27.40;37.60
21171;DHT22;10743;52.160;20.910;2024-02-26T09:50:41;27.50;37.60
21171;DHT22;10743;52.160;20.910;2024-02-26T09:53:11;27.50;37.50
21171;DHT22;10743;52.160;20.910;2024-02-26T09:55:39;27.60;37.20
21171;DHT22;10743;52.160;20.910;2024-02-26T09:58:06;27.60;37.20
21171;DHT22;10743;52.160;20.910;2024-02-26T10:00:37;27.60;37.30
21171;DHT22;10743;52.160;20.910;2024-02-26T10:03:09;27.70;36.90
21171;DHT22;10743;52.160;20.910;2024-02-26T10:05:41;27.70;36.70
21171;DHT22;10743;52.160;20.910;2024-02-26T10:08:12;27.70;36.80
21171;DHT22;10743;52.160;20.910;2024-02-26T10:10:39;27.70;36.70
21171;DHT22;10743;52.160;20.910;2024-02-26T10:13:07;27.60;37.40
21171;DHT22;10743;52.160;20.910;2024-02-26T10:15:38;27.70;36.60
21171;DHT22;10743;52.160;20.910;2024-02-26T10:18:06;27.70;36.50
21171;DHT22;10743;52.160;20.910;2024-02-26T10:20:33;27.60;36.50
21171;DHT22;10743;52.160;20.910;2024-02-26T10:23:04;27.60;36.60
21171;DHT22;10743;52.160;20.910;2024-02-26T10:25:32;27.60;36.70
21171;DHT22;10743;52.160;20.910;2024-02-26T10:28:00;27.50;36.90
21171;DHT22;10743;52.160;20.910;2024-02-26T10:30:30;27.50;36.90
21171;DHT22;10743;52.160;20.910;2024-02-26T10:32:59;27.50;37.10
21171;DHT22;10743;52.160;20.910;2024-02-26T10:35:26;27.40;37.10
21171;DHT22;10743;52.160;20.910;2024-02-26T10:37:55;27.40;36.90
21171;DHT22;10743;52.160;20.910;2024-02-26T10:40:22;27.40;37.00
21171;DHT22;10743;52.160;20.910;2024-02-26T10:42:50;27.50;36.70
21171;DHT22;10743;52.160;20.910;2024-02-26T10:45:17;27.60;36.70
21171;DHT22;10743;52.160;20.910;2024-02-26T10:47:44;27.50;36.80
21171;DHT22;10743;52.160;20.910;2024-02-26T10:50:13;27.40;37.00
21171;DHT22;10743;52.160;20.910;2024-02-26T10:52:43;27.40;37.20
21171;DHT22;10743;52.160;20.910;2024-02-26T10:55:16;27.40;37.00
21171;DHT22;10743;52.160;20.910;2024-02-26T10:57:48;27.40;37.00
21171;DHT22;10743;52.160;20.910;2024-02-26T11:00:18;27.40;37.00
21171;DHT22;10743;52.160;20.910;2024-02-26T11:02:45;27.40;37.00
21171;DHT22;10743;52.160;20.910;2024-02-26T11:05:17;27.40;36.90
21171;DHT22;10743;52.160;20.910;2024-02-26T11:07:44;27.30;36.90
21171;DHT22;10743;52.160;20.910;2024-02-26T11:10:13;27.30;37.00
21171;DHT22;10743;52.160;20.910;2024-02-26T11:12:42;27.30;36.70
21171;DHT22;10743;52.160;20.910;2024-02-26T11:15:10;27.40;36.40
21171;DHT22;10743;52.160;20.910;2024-02-26T11:17:38;27.30;36.60
21171;DHT22;10743;52.160;20.910;2024-02-26T11:20:09;27.20;36.70
21171;DHT22;10743;52.160;20.910;2024-02-26T11:22:36;27.10;36.60
21171;DHT22;10743;52.160;20.910;2024-02-26T11:25:04;27.20;36.60
21171;DHT22;10743;52.160;20.910;2024-02-26T11:27:45;27.10;36.70
21171;DHT22;10743;52.160;20.910;2024-02-26T11:30:15;27.20;36.70
21171;DHT22;10743;52.160;20.910;2024-02-26T11:32:45;27.10;36.90
21171;DHT22;10743;52.160;20.910;2024-02-26T11:35:14;27.00;37.20
21171;DHT22;10743;52.160;20.910;2024-02-26T11:38:04;27.00;37.50
21171;DHT22;10743;52.160;20.910;2024-02-26T11:40:37;27.10;37.20
21171;DHT22;10743;52.160;20.910;2024-02-26T11:43:06;27.20;37.50
21171;DHT22;10743;52.160;20.910;2024-02-26T11:48:16;27.40;37.10
21171;DHT22;10743;52.160;20.910;2024-02-26T11:56:10;27.70;36.50
21171;DHT22;10743;52.160;20.910;2024-02-26T11:58:46;27.70;36.20
21171;DHT22;10743;52.160;20.910;2024-02-26T12:04:11;27.80;36.10
21171;DHT22;10743;52.160;20.910;2024-02-26T12:09:39;28.00;35.70
21171;DHT22;10743;52.160;20.910;2024-02-26T12:12:09;28.10;35.60
21171;DHT22;10743;52.160;20.910;2024-02-26T12:14:39;28.10;35.60
21171;DHT22;10743;52.160;20.910;2024-02-26T12:17:08;28.10;35.90
21171;DHT22;10743;52.160;20.910;2024-02-26T12:19:46;28.10;35.90
21171;DHT22;10743;52.160;20.910;2024-02-26T12:22:14;28.20;35.50
21171;DHT22;10743;52.160;20.910;2024-02-26T12:24:43;28.20;35.50
21171;DHT22;10743;52.160;20.910;2024-02-26T12:27:10;28.40;34.70
21171;DHT22;10743;52.160;20.910;2024-02-26T12:29:37;28.50;34.70
21171;DHT22;10743;52.160;20.910;2024-02-26T12:32:05;28.50;34.80
21171;DHT22;10743;52.160;20.910;2024-02-26T12:34:34;28.50;35.10
21171;DHT22;10743;52.160;20.910;2024-02-26T12:37:02;28.50;35.00
21171;DHT22;10743;52.160;20.910;2024-02-26T12:39:29;28.60;34.80
21171;DHT22;10743;52.160;20.910;2024-02-26T12:41:58;28.70;34.80
21171;DHT22;10743;52.160;20.910;2024-02-26T12:44:26;28.70;34.60
21171;DHT22;10743;52.160;20.910;2024-02-26T12:47:01;28.70;34.70
21171;DHT22;10743;52.160;20.910;2024-02-26T12:49:31;28.70;34.70
21171;DHT22;10743;52.160;20.910;2024-02-26T12:51:59;28.70;34.40
21171;DHT22;10743;52.160;20.910;2024-02-26T12:54:33;28.80;34.40
21171;DHT22;10743;52.160;20.910;2024-02-26T12:57:06;28.80;33.80
21171;DHT22;10743;52.160;20.910;2024-02-26T12:59:35;28.80;33.80
21171;DHT22;10743;52.160;20.910;2024-02-26T13:02:04;28.80;34.10
21171;DHT22;10743;52.160;20.910;2024-02-26T13:04:34;28.90;33.90
21171;DHT22;10743;52.160;20.910;2024-02-26T13:07:04;28.90;33.90
21171;DHT22;10743;52.160;20.910;2024-02-26T13:09:35;28.90;34.00
21171;DHT22;10743;52.160;20.910;2024-02-26T13:12:07;28.80;34.10
21171;DHT22;10743;52.160;20.910;2024-02-26T13:14:34;28.80;34.20
21171;DHT22;10743;52.160;20.910;2024-02-26T13:17:02;28.80;34.10
21171;DHT22;10743;52.160;20.910;2024-02-26T13:19:29;28.90;33.80
21171;DHT22;10743;52.160;20.910;2024-02-26T13:22:06;28.90;33.60
21171;DHT22;10743;52.160;20.910;2024-02-26T13:24:34;29.00;33.40
21171;DHT22;10743;52.160;20.910;2024-02-26T13:27:02;29.10;33.30
21171;DHT22;10743;52.160;20.910;2024-02-26T13:29:32;29.10;33.30
21171;DHT22;10743;52.160;20.910;2024-02-26T13:31:59;29.00;33.60
21171;DHT22;10743;52.160;20.910;2024-02-26T13:34:27;29.00;33.50
21171;DHT22;10743;52.160;20.910;2024-02-26T13:36:54;29.00;33.40
21171;DHT22;10743;52.160;20.910;2024-02-26T13:39:26;29.00;33.40
21171;DHT22;10743;52.160;20.910;2024-02-26T13:41:54;29.00;33.30
21171;DHT22;10743;52.160;20.910;2024-02-26T13:44:22;29.00;33.50
21171;DHT22;10743;52.160;20.910;2024-02-26T13:46:50;29.00;32.80
21171;DHT22;10743;52.160;20.910;2024-02-26T13:49:17;29.10;32.80
21171;DHT22;10743;52.160;20.910;2024-02-26T13:51:44;29.10;32.80
21171;DHT22;10743;52.160;20.910;2024-02-26T13:54:11;29.00;32.90
21171;DHT22;10743;52.160;20.910;2024-02-26T13:56:40;29.00;32.50
21171;DHT22;10743;52.160;20.910;2024-02-26T13:59:10;29.00;32.50
21171;DHT22;10743;52.160;20.910;2024-02-26T14:01:37;29.00;32.50
21171;DHT22;10743;52.160;20.910;2024-02-26T14:04:05;29.10;32.40
21171;DHT22;10743;52.160;20.910;2024-02-26T14:06:32;29.10;32.50
21171;DHT22;10743;52.160;20.910;2024-02-26T14:08:59;29.00;32.20
21171;DHT22;10743;52.160;20.910;2024-02-26T14:11:27;29.00;32.20
21171;DHT22;10743;52.160;20.910;2024-02-26T14:13:56;29.10;32.00
21171;DHT22;10743;52.160;20.910;2024-02-26T14:16:23;29.10;31.90
21171;DHT22;10743;52.160;20.910;2024-02-26T14:18:50;29.10;32.30
21171;DHT22;10743;52.160;20.910;2024-02-26T14:21:17;29.00;32.50
21171;DHT22;10743;52.160;20.910;2024-02-26T14:23:44;29.00;32.60
21171;DHT22;10743;52.160;20.910;2024-02-26T14:26:12;29.00;32.70
21171;DHT22;10743;52.160;20.910;2024-02-26T14:28:39;29.00;32.40
21171;DHT22;10743;52.160;20.910;2024-02-26T14:31:06;29.00;32.70
21171;DHT22;10743;52.160;20.910;2024-02-26T14:33:39;29.00;32.80
21171;DHT22;10743;52.160;20.910;2024-02-26T14:36:09;28.90;32.90
21171;DHT22;10743;52.160;20.910;2024-02-26T14:38:37;28.90;33.10
21171;DHT22;10743;52.160;20.910;2024-02-26T14:41:06;28.90;33.10
21171;DHT22;10743;52.160;20.910;2024-02-26T14:43:33;28.90;33.30
21171;DHT22;10743;52.160;20.910;2024-02-26T14:46:02;28.80;33.50
21171;DHT22;10743;52.160;20.910;2024-02-26T14:48:30;28.80;33.50
21171;DHT22;10743;52.160;20.910;2024-02-26T14:50:59;28.80;33.50
21171;DHT22;10743;52.160;20.910;2024-02-26T14:53:26;28.80;33.40
21171;DHT22;10743;52.160;20.910;2024-02-26T14:55:53;28.80;33.40
21171;DHT22;10743;52.160;20.910;2024-02-26T14:58:20;28.80;33.50
21171;DHT22;10743;52.160;20.910;2024-02-26T15:00:47;28.80;33.60
21171;DHT22;10743;52.160;20.910;2024-02-26T15:03:15;28.80;33.60
21171;DHT22;10743;52.160;20.910;2024-02-26T15:05:43;28.70;33.60
21171;DHT22;10743;52.160;20.910;2024-02-26T15:08:10;28.70;33.70
21171;DHT22;10743;52.160;20.910;2024-02-26T15:10:41;28.70;33.80
21171;DHT22;10743;52.160;20.910;2024-02-26T15:13:15;28.70;33.90
21171;DHT22;10743;52.160;20.910;2024-02-26T15:15:45;28.60;33.90
21171;DHT22;10743;52.160;20.910;2024-02-26T15:18:12;28.60;34.00
21171;DHT22;10743;52.160;20.910;2024-02-26T15:20:44;28.60;34.10
21171;DHT22;10743;52.160;20.910;2024-02-26T15:23:11;28.60;34.20
21171;DHT22;10743;52.160;20.910;2024-02-26T15:25:39;28.50;34.20
21171;DHT22;10743;52.160;20.910;2024-02-26T15:28:08;28.60;34.20
21171;DHT22;10743;52.160;20.910;2024-02-26T15:30:37;28.60;34.50
21171;DHT22;10743;52.160;20.910;2024-02-26T15:33:04;28.50;34.20